AirNav   Air Wisconsin pilot careers
 
 1060 users online  

5D9 Bandit Field Airdrome
Clyde, Ohio, USA

GOING TO CLYDE?


FAA INFORMATION EFFECTIVE 16 AUGUST 2018

Location

FAA Identifier: 5D9
Lat/Long: 41-13-26.1950N / 082-57-27.6860W
41-13.436583N / 082-57.461433W
41.2239431 / -82.9576906
(estimated)
Elevation: 805 ft. / 245 m (estimated)
Variation: 05W (1985)
From city: 5 miles S of CLYDE, OH
Time zone: UTC -4 (UTC -5 during Standard Time)
Zip code: 44836

Airport Operations

Airport use: Open to the public
Activation date: 01/1973
Control tower: no
ARTCC: CLEVELAND CENTER
FSS: CLEVELAND FLIGHT SERVICE STATION
NOTAMs facility: CLE (NOTAM-D service available)
Attendance: IREG
Wind indicator: yes
Segmented circle: no

Airport Communications

CTAF: 122.9
WX AWOS-3 at S24 (6 nm NW): 119.575 (419-547-6932)
WX AWOS-3 at 16G (14 nm SW): 127.175 (419-443-1043)
WX AWOS-3 at PCW (18 nm N): 118.775 (419-734-9955)
WX AWOS-3 at FZI (20 nm W): 124.625 (419-436-0053)

Nearby radio navigation aids

VOR radial/distance  VOR name  Freq  Var
MFDr325/27.0MANSFIELD VORTAC108.8003W
VWVr116/33.6WATERVILLE VOR/DME113.1002W
BUDr013/(36.8)BUCKEYE VOR109.8005W
DJBr262/36.8DRYER VOR/DME113.6005W
FBCr068/39.5FLAG CITY VORTAC108.2002W

 
NDB name  Hdg/Dist  Freq  Var  ID
TIFFIN061/14.026905WTII - .. ..
PORT CLINTON200/18.142307WPCW .--. -.-. .--

Airport Services

Parking: tiedowns
Airframe service: MINOR
Powerplant service: MINOR
Bottled oxygen: NONE
Bulk oxygen: NONE

Runway Information

Runway 18/36

Dimensions: 2576 x 80 ft. / 785 x 24 m
Surface: turf, in good condition
Runway edge markings: END MKD WITH RED/YELLOW PANELS.
RUNWAY 18  RUNWAY 36
Latitude: 41-13.653000N41-13.220000N
Longitude: 082-57.458667W082-57.463833W
Elevation: 805.0 ft.805.0 ft.
Traffic pattern: leftleft
Displaced threshold: 275 ft.
DSPLCD THLD MKD WITH RED/YELLOW PANELS.
no
Runway end identifier lights: nono
Obstructions: 15 ft. road, 24 ft. from runway, 1:1 slope to clear
APCH RATIO 19:1 TO DSPLCD THLD.
none

Airport Ownership and Management from official FAA records

Ownership: Privately-owned
Owner: MICHAEL MATESICK
6606 N. TWP RD 78
GREEN SPRINGS, OH 44836
Phone 419-483-3607
Manager: MICHAEL MATESICK
6610 N TWP RD 78
GREEN SPRINGS, OH 44836
Phone 419-483-3607

Airport Operational Statistics

Aircraft based on the field: 2
Single engine airplanes: 2
    
Aircraft operations: 140/year *
100% local general aviation
* for 12-month period ending 17 June 2016

Additional Remarks

PVT RD CROSSES RY 18/36 540 FT N OF THE AER 36

Instrument Procedures

There are no published instrument procedures at 5D9.

Some nearby airports with instrument procedures:

S24 - Sandusky County Regional Airport (6 nm NW)
14G - Fremont Airport (11 nm NW)
16G - Seneca County Airport (14 nm SW)
8G1 - Willard Airport (15 nm SE)
KPCW - Erie-Ottawa International Airport (18 nm N)
5A1 - Norwalk-Huron County Airport (18 nm E)
KFZI - Fostoria Metropolitan Airport (20 nm W)
 
Loc | Ops | Rwys | IFR | FBO | Links
Com | Nav | Svcs | Stats | Notes


 
Area around 5D9 (Bandit Field Airdrome)
 
Road maps at: MapQuest Bing Google
 
Aerial photo
WARNING: Photo may not be current or correct
Aerial photo of 5D9 (Bandit Field Airdrome)
Do you have a better or more recent aerial photo of Bandit Field Airdrome that you would like to share? If so, please send us your photo.

 
Sectional chart

 
Airport distance calculator
Flying to Bandit Field Airdrome? Find the distance to fly.

From to 5D9

Sunrise and sunset
Times for 18-Aug-2018
 Local
(UTC-4)
 Zulu
(UTC)
Morning civil twilight06:1610:16
Sunrise06:4510:45
Sunset20:2600:26
Evening civil twilight20:5600:56

Current date and time
Zulu (UTC)  18-Aug-2018 16:08:19
Local (UTC-4)  18-Aug-2018 12:08:19
 
METAR
KPCW 
18nm N 
181555Z AUTO 05008KT 10SM CLR 25/21 A2996 RMK AO2
KTDZ 
31nm NW 
181553Z AUTO 03006KT 10SM CLR 26/21 A2999 RMK AO2 SLP149 T02560211
KMFD 
32nm SE 
181552Z 33006KT 6SM HZ SCT012 OVC019 24/21 A2998 RMK AO2 SLP144 T02440211
KFDY 
34nm W 
181553Z AUTO 01004KT 10SM FEW022 27/21 A2998 RMK AO2 SLP142 T02670206
KLPR 
36nm E 
181553Z AUTO 01010KT 10SM SCT018 SCT029 BKN039 25/19 A2997 RMK AO2 SLP142 T02500189 TSNO
TAF
KMFD 
32nm SE 
181404Z 1814/1912 33007KT 2SM BR OVC005 FM181600 35007KT 5SM BR VCSH BKN018 FM181800 36008KT P6SM BKN035 FM190700 VRB03KT 6SM BR FEW250
KFDY 
34nm W 
181403Z 1814/1912 36006KT P6SM BKN060 FM191000 VRB03KT 5SM BR FEW250
NOTAMs
Click for the latest NOTAMs
NOTAMs are issued by the DoD/FAA and will open in a separate window not controlled by AirNav.

 

 
 

Would you like to see your business listed on this page?

 If your business provides an interesting product or service to pilots, flight crews, aircraft, or users of the Bandit Field Airdrome, you should consider listing it here.  To start the listing process, click on the button below
 
Add a business
 

Other Pages about Bandit Field Airdrome

Update a link
 
Copyright © AirNav, LLC. All rights reserved. Privacy Policy  Contact